Time;durP1;ratioP1;P1;durP2;ratioP2;P2;SDS_P1;SDS_P2;PMS_P1;PMS_P2;Temp;Humidity;BMP_temperature;BMP_pressure;BME280_temperature;BME280_humidity;BME280_pressure;Samples;Min_cycle;Max_cycle;Signal;HPM_P1;HPM_P2
2023/02/27 00:00:13;;;;;;;5.07;3.33;;;;;;;0.54;85.36;99621.19;5015345;28;20233;-81
2023/02/27 00:02:44;;;;;;;4.20;2.93;;;;;;;0.55;84.83;99633.41;5033737;28;20194;-80
2023/02/27 00:05:13;;;;;;;3.87;2.90;;;;;;;0.43;85.90;99635.44;5032924;28;20244;-81
2023/02/27 00:07:40;;;;;;;4.93;3.27;;;;;;;0.41;86.11;99637.44;5032797;28;20230;-80
2023/02/27 00:10:11;;;;;;;4.03;3.03;;;;;;;0.38;86.05;99627.19;5032852;28;20194;-81
2023/02/27 00:12:38;;;;;;;4.27;3.20;;;;;;;0.40;86.05;99637.56;5031901;28;20257;-80
2023/02/27 00:15:10;;;;;;;5.13;3.50;;;;;;;0.37;86.28;99638.69;5032864;28;20646;-81
2023/02/27 00:17:37;;;;;;;3.87;2.80;;;;;;;0.56;86.45;99645.56;5031859;28;20243;-82
2023/02/27 00:20:08;;;;;;;5.00;3.47;;;;;;;0.38;86.41;99637.72;5031562;28;20190;-81
2023/02/27 00:22:36;;;;;;;4.77;3.13;;;;;;;0.46;86.75;99654.59;5032579;28;20297;-80
2023/02/27 00:25:09;;;;;;;4.13;2.93;;;;;;;0.54;86.63;99652.81;5033026;28;20197;-81
2023/02/27 00:27:43;;;;;;;4.20;2.60;;;;;;;0.39;86.94;99644.66;5032786;28;20192;-80
2023/02/27 00:30:15;;;;;;;4.43;3.60;;;;;;;0.38;87.53;99655.34;5016312;28;20231;-82
2023/02/27 00:32:42;;;;;;;4.63;3.17;;;;;;;0.36;87.55;99652.06;5032327;28;20670;-81
2023/02/27 00:35:10;;;;;;;4.53;3.33;;;;;;;0.37;88.30;99664.25;5032571;28;20190;-80
2023/02/27 00:37:38;;;;;;;5.27;3.10;;;;;;;0.34;88.13;99672.44;5032707;28;20194;-80
2023/02/27 00:40:08;;;;;;;4.77;3.30;;;;;;;0.37;88.68;99674.78;5031573;28;20658;-80
2023/02/27 00:42:38;;;;;;;4.30;3.17;;;;;;;0.40;88.91;99677.13;5034169;28;20666;-81
2023/02/27 00:45:06;;;;;;;3.83;3.30;;;;;;;0.37;89.32;99680.06;5026601;28;20662;-80
2023/02/27 00:47:40;;;;;;;4.83;3.13;;;;;;;0.34;89.85;99683.81;5032052;28;20202;-80
2023/02/27 00:50:11;;;;;;;4.37;3.20;;;;;;;0.33;90.10;99691.88;5030739;28;20202;-81
2023/02/27 00:52:41;;;;;;;3.57;3.13;;;;;;;0.33;90.75;99690.06;5036974;28;20237;-80
2023/02/27 00:55:10;;;;;;;4.67;3.03;;;;;;;0.29;90.95;99690.53;5033820;28;20185;-80
2023/02/27 00:57:39;;;;;;;5.03;3.13;;;;;;;0.40;90.72;99696.41;5032530;28;20216;-79
2023/02/27 01:00:15;;;;;;;3.97;3.53;;;;;;;0.39;90.62;99697.38;5014884;28;20226;-81
2023/02/27 01:02:42;;;;;;;4.23;3.30;;;;;;;0.37;91.06;99695.88;5031115;28;20206;-80
2023/02/27 01:05:13;;;;;;;4.67;3.40;;;;;;;0.50;91.10;99698.13;5033574;28;20193;-80
2023/02/27 01:07:44;;;;;;;4.47;3.30;;;;;;;0.59;90.99;99691.91;5033505;28;20244;-80
2023/02/27 01:10:15;;;;;;;5.90;3.47;;;;;;;0.63;91.06;99698.53;5032580;28;20263;-81
2023/02/27 01:12:47;;;;;;;4.07;3.17;;;;;;;0.63;91.05;99691.44;5032055;28;20755;-81
2023/02/27 01:15:16;;;;;;;4.77;3.50;;;;;;;0.50;92.17;99701.56;5034713;28;20661;-81
2023/02/27 01:17:48;;;;;;;4.73;3.70;;;;;;;0.53;92.06;99705.69;5032623;28;20281;-81
2023/02/27 01:20:22;;;;;;;4.87;3.23;;;;;;;0.67;92.28;99689.31;5033578;28;20615;-80
2023/02/27 01:22:49;;;;;;;4.40;3.53;;;;;;;0.60;92.88;99690.94;5032812;28;20701;-80
2023/02/27 01:25:29;;;;;;;4.87;3.23;;;;;;;0.73;92.32;99686.91;5031595;28;20194;-81
2023/02/27 01:27:57;;;;;;;4.57;3.47;;;;;;;0.86;92.00;99689.13;5034564;28;20213;-80
2023/02/27 01:30:26;;;;;;;4.13;3.13;;;;;;;0.83;92.45;99695.53;5034745;28;20722;-80
2023/02/27 01:32:58;;;;;;;3.97;3.30;;;;;;;0.90;92.33;99690.44;5031695;28;20288;-79
2023/02/27 01:35:25;;;;;;;4.23;3.27;;;;;;;0.88;91.76;99695.91;5032166;28;20190;-80
2023/02/27 01:37:52;;;;;;;4.27;3.43;;;;;;;0.88;92.85;99701.19;5031940;28;20197;-80
2023/02/27 01:40:22;;;;;;;5.97;3.30;;;;;;;0.92;92.46;99693.78;5033165;28;20261;-80
2023/02/27 01:42:50;;;;;;;4.10;3.20;;;;;;;0.85;92.89;99693.56;5033151;28;20229;-81
2023/02/27 01:45:25;;;;;;;4.67;3.17;;;;;;;0.99;93.24;99701.88;5035610;28;20190;-80
2023/02/27 01:48:17;;;;;;;5.50;3.30;;;;;;;0.94;92.76;99701.50;5030522;28;20201;-82
2023/02/27 01:51:17;;;;;;;3.80;3.07;;;;;;;0.88;93.75;99690.63;5034249;28;20582;-80
2023/02/27 01:53:46;;;;;;;4.50;2.90;;;;;;;0.92;92.81;99690.31;5034448;28;20221;-80
2023/02/27 01:56:15;;;;;;;3.33;2.70;;;;;;;0.99;92.75;99692.16;5035518;28;20192;-81
2023/02/27 01:58:43;;;;;;;4.10;2.83;;;;;;;1.03;92.92;99695.28;5001133;28;20214;-79
2023/02/27 02:01:12;;;;;;;4.33;2.80;;;;;;;1.09;93.14;99695.50;5017974;28;20256;-80
2023/02/27 02:04:01;;;;;;;5.33;3.03;;;;;;;1.05;92.52;99702.09;5034415;28;20260;-80
2023/02/27 02:06:34;;;;;;;6.30;2.77;;;;;;;0.94;93.39;99696.25;5039176;28;20194;-81
2023/02/27 02:09:02;;;;;;;4.43;2.90;;;;;;;1.03;93.36;99692.66;5036786;28;20234;-80
2023/02/27 02:11:30;;;;;;;3.57;2.93;;;;;;;1.10;93.31;99694.53;5040997;28;20612;-80
2023/02/27 02:14:03;;;;;;;5.57;3.10;;;;;;;1.13;93.25;99694.19;5038404;28;20218;-80
2023/02/27 02:16:33;;;;;;;3.10;2.70;;;;;;;1.20;92.76;99691.78;5039498;28;20193;-80
2023/02/27 02:19:29;;;;;;;4.53;2.73;;;;;;;1.08;92.17;99696.47;5024095;28;20629;-82
2023/02/27 02:22:22;;;;;;;4.03;2.87;;;;;;;1.18;92.91;99697.19;5040767;28;20677;-78
2023/02/27 02:25:08;;;;;;;3.87;2.80;;;;;;;1.18;92.90;99697.19;5039080;28;20659;-80
2023/02/27 02:28:01;;;;;;;3.60;2.80;;;;;;;1.21;92.08;99686.31;5023813;28;20300;-78
2023/02/27 02:30:36;;;;;;;3.90;2.70;;;;;;;1.08;93.00;99685.94;5039113;28;20236;-79
2023/02/27 02:33:56;;;;;;;3.37;2.67;;;;;;;0.96;93.24;99684.56;5040163;28;20704;-79
2023/02/27 02:36:45;;;;;;;3.73;2.50;;;;;;;0.93;92.85;99689.34;5038912;28;20206;-84
2023/02/27 02:39:53;;;;;;;4.00;2.60;;;;;;;0.81;92.90;99689.59;5034929;28;20218;-80
2023/02/27 02:42:43;;;;;;;4.53;2.63;;;;;;;0.85;92.40;99692.72;4997891;28;20210;-80
2023/02/27 02:45:32;;;;;;;4.40;2.37;;;;;;;0.76;92.11;99683.13;5029525;28;20198;-79
2023/02/27 02:48:16;;;;;;;3.43;2.40;;;;;;;0.99;91.59;99696.59;5036081;28;20193;-79
2023/02/27 02:50:45;;;;;;;3.23;2.50;;;;;;;0.88;90.46;99695.06;5019731;28;20614;-79
2023/02/27 02:53:25;;;;;;;4.00;2.53;;;;;;;0.90;90.61;99695.72;5038842;28;20210;-79
2023/02/27 02:56:32;;;;;;;3.57;2.50;;;;;;;0.94;90.78;99693.59;5035068;28;20206;-79
2023/02/27 02:59:34;;;;;;;3.47;2.27;;;;;;;0.98;89.64;99701.03;5035467;28;20225;-79
2023/02/27 03:02:07;;;;;;;4.03;2.30;;;;;;;0.87;89.23;99693.41;5034896;28;20277;-79
2023/02/27 03:04:48;;;;;;;5.70;2.70;;;;;;;0.87;89.26;99696.06;5039813;28;20206;-79
2023/02/27 03:07:25;;;;;;;4.80;2.33;;;;;;;0.95;89.38;99706.66;5002092;28;20249;-80
2023/02/27 03:10:03;;;;;;;2.87;1.90;;;;;;;1.10;88.29;99699.81;5024957;28;20193;-80
2023/02/27 03:12:32;;;;;;;4.63;2.60;;;;;;;1.10;88.44;99705.09;5020581;28;20217;-80
2023/02/27 03:15:05;;;;;;;4.60;2.30;;;;;;;1.06;87.97;99700.28;5041926;28;20653;-80
2023/02/27 03:17:40;;;;;;;3.73;2.60;;;;;;;1.06;88.10;99713.47;5031632;28;20193;-79
2023/02/27 03:20:16;;;;;;;4.43;2.40;;;;;;;0.76;87.87;99735.88;5019835;28;20212;-79
2023/02/27 03:22:46;;;;;;;4.77;2.70;;;;;;;0.83;88.04;99729.84;5027534;28;20202;-79
2023/02/27 03:25:14;;;;;;;7.07;2.73;;;;;;;0.82;89.06;99740.53;5038396;28;20189;-80
2023/02/27 03:27:59;;;;;;;4.17;2.40;;;;;;;0.88;89.14;99732.00;5048043;28;20557;-78
2023/02/27 03:30:32;;;;;;;3.50;2.50;;;;;;;0.90;88.92;99740.56;5017101;28;20210;-80
2023/02/27 03:33:13;;;;;;;5.67;2.80;;;;;;;0.84;88.90;99738.56;5000416;28;20210;-79
2023/02/27 03:36:00;;;;;;;5.33;2.80;;;;;;;0.69;89.17;99754.13;5016795;28;20220;-79
2023/02/27 03:38:39;;;;;;;5.60;2.70;;;;;;;0.81;88.64;99752.06;5042318;28;20276;-80
2023/02/27 03:41:17;;;;;;;4.23;2.70;;;;;;;0.71;88.55;99752.16;5036870;28;20198;-79
2023/02/27 03:44:09;;;;;;;5.13;3.00;;;;;;;0.65;88.50;99754.59;5008179;28;20275;-80
2023/02/27 03:46:39;;;;;;;4.83;2.90;;;;;;;0.66;87.94;99756.22;5018900;28;20221;-80
2023/02/27 03:49:12;;;;;;;4.80;2.83;;;;;;;0.68;87.81;99751.63;5029694;28;20214;-78
2023/02/27 03:51:38;;;;;;;4.97;2.77;;;;;;;0.60;87.73;99754.22;5048483;28;20190;-79
2023/02/27 03:54:14;;;;;;;7.87;3.30;;;;;;;0.71;87.28;99762.69;5017616;28;20219;-78
2023/02/27 03:56:49;;;;;;;4.07;2.63;;;;;;;0.58;87.13;99762.28;5033112;28;20232;-79
2023/02/27 03:59:18;;;;;;;4.07;2.70;;;;;;;0.61;86.76;99761.13;5026166;28;20222;-80
2023/02/27 04:01:50;;;;;;;4.17;2.97;;;;;;;0.51;86.94;99770.94;5026151;28;20217;-79
2023/02/27 04:04:18;;;;;;;3.67;2.70;;;;;;;0.44;87.10;99771.53;5042839;28;20592;-78
2023/02/27 04:07:37;;;;;;;4.83;2.80;;;;;;;0.57;87.22;99763.25;5034788;28;20213;-80
2023/02/27 04:10:13;;;;;;;4.50;2.70;;;;;;;0.50;86.59;99769.28;5022855;28;20202;-80
2023/02/27 04:13:21;;;;;;;3.27;2.80;;;;;;;0.53;87.14;99777.72;5038103;28;20206;-80
2023/02/27 04:16:10;;;;;;;4.83;2.60;;;;;;;0.54;86.29;99770.63;5046022;28;20267;-78
2023/02/27 04:19:12;;;;;;;5.97;2.60;;;;;;;0.32;86.52;99778.03;5041396;28;20569;-80
2023/02/27 04:22:10;;;;;;;3.87;2.50;;;;;;;0.39;86.55;99780.88;5036345;28;20277;-79
2023/02/27 04:25:18;;;;;;;5.60;3.00;;;;;;;0.47;85.76;99788.84;5032213;28;20208;-79
2023/02/27 04:28:16;;;;;;;4.00;2.60;;;;;;;0.69;85.49;99783.13;5021235;28;20210;-79
2023/02/27 04:30:52;;;;;;;3.73;2.60;;;;;;;0.59;86.19;99776.28;5034288;28;20222;-79
2023/02/27 04:33:39;;;;;;;4.10;2.47;;;;;;;0.57;85.84;99781.69;5032522;28;20690;-78
2023/02/27 04:36:16;;;;;;;6.03;2.40;;;;;;;0.53;85.32;99777.72;5019378;28;20193;-81
2023/02/27 04:38:48;;;;;;;4.40;2.30;;;;;;;0.52;85.47;99786.59;5036862;28;20202;-79
2023/02/27 04:41:23;;;;;;;5.03;2.50;;;;;;;0.60;84.83;99785.84;5019783;28;20197;-79
2023/02/27 04:43:53;;;;;;;3.63;2.50;;;;;;;0.61;84.73;99782.22;5035019;28;20202;-79
2023/02/27 04:46:23;;;;;;;4.63;2.20;;;;;;;0.38;84.61;99780.06;5032666;28;20662;-80
2023/02/27 04:48:58;;;;;;;4.50;2.60;;;;;;;0.38;85.04;99787.97;5031200;28;20206;-79
2023/02/27 04:51:50;;;;;;;5.27;2.43;;;;;;;0.48;84.45;99785.25;5034744;28;20189;-78
2023/02/27 04:54:26;;;;;;;3.77;2.10;;;;;;;0.43;84.24;99790.13;5026553;28;20279;-80
2023/02/27 04:57:01;;;;;;;4.87;2.40;;;;;;;0.61;84.17;99798.03;5029197;28;20252;-80
2023/02/27 04:59:42;;;;;;;4.63;2.10;;;;;;;0.56;82.12;99787.94;5016219;28;20218;-78
2023/02/27 05:02:14;;;;;;;3.83;1.90;;;;;;;0.63;82.58;99791.66;5031597;28;20206;-79
2023/02/27 05:04:44;;;;;;;3.80;2.23;;;;;;;0.65;81.82;99792.34;5023181;28;20201;-78
2023/02/27 05:07:16;;;;;;;4.10;2.10;;;;;;;0.64;81.80;99803.03;5015048;28;20222;-79
2023/02/27 05:09:50;;;;;;;4.83;2.20;;;;;;;0.57;81.34;99797.53;5033137;28;20190;-80
2023/02/27 05:12:35;;;;;;;5.43;1.93;;;;;;;0.66;80.55;99796.59;5046318;28;20194;-80
2023/02/27 05:15:06;;;;;;;3.83;1.93;;;;;;;0.58;81.10;99795.72;5019654;28;20220;-78
2023/02/27 05:17:40;;;;;;;4.27;2.00;;;;;;;0.71;81.04;99801.41;5034160;28;20193;-79
2023/02/27 05:20:12;;;;;;;4.13;2.00;;;;;;;0.59;80.19;99808.75;5032166;28;20277;-81
2023/02/27 05:23:02;;;;;;;4.33;2.10;;;;;;;0.50;80.54;99803.56;5042514;28;20546;-80
2023/02/27 05:25:45;;;;;;;2.83;1.80;;;;;;;0.44;79.63;99810.25;5042434;28;20194;-80
2023/02/27 05:28:35;;;;;;;3.47;2.07;;;;;;;0.61;80.11;99829.69;5043773;28;20193;-79
2023/02/27 05:31:14;;;;;;;3.87;2.00;;;;;;;0.59;79.92;99815.84;5029716;28;20243;-80
2023/02/27 05:33:49;;;;;;;4.43;1.80;;;;;;;0.41;78.59;99815.84;5021270;28;20206;-79
2023/02/27 05:36:30;;;;;;;2.23;1.50;;;;;;;0.61;78.34;99827.03;5038113;28;20190;-80
2023/02/27 05:39:03;;;;;;;3.50;1.80;;;;;;;0.45;78.08;99827.75;5025071;28;20623;-79
2023/02/27 05:41:34;;;;;;;2.93;1.83;;;;;;;0.50;77.72;99825.47;5025137;28;20185;-79
2023/02/27 05:44:21;;;;;;;3.03;1.70;;;;;;;0.49;78.01;99833.53;5014876;28;20222;-79
2023/02/27 05:46:55;;;;;;;4.43;2.10;;;;;;;0.57;78.69;99830.97;5030350;28;20194;-80
2023/02/27 05:49:40;;;;;;;3.30;1.70;;;;;;;0.60;77.62;99846.50;5030705;28;20201;-79
2023/02/27 05:52:15;;;;;;;4.53;2.20;;;;;;;0.62;77.84;99845.34;5027418;28;20596;-80
2023/02/27 05:55:02;;;;;;;4.83;2.00;;;;;;;0.67;77.06;99851.00;5013765;28;20221;-78
2023/02/27 05:57:36;;;;;;;3.10;1.70;;;;;;;0.55;76.49;99854.88;5030501;28;20198;-80
2023/02/27 06:00:42;;;;;;;4.30;1.80;;;;;;;0.63;76.79;99860.22;5025177;28;20272;-80
2023/02/27 06:03:14;;;;;;;4.17;2.00;;;;;;;0.72;76.86;99859.28;5024434;28;20185;-79
2023/02/27 06:05:41;;;;;;;3.40;1.93;;;;;;;0.59;76.65;99855.38;5037503;28;20264;-79
2023/02/27 06:08:14;;;;;;;5.13;1.87;;;;;;;0.60;76.69;99855.25;5038742;28;20259;-79
2023/02/27 06:10:41;;;;;;;4.50;1.93;;;;;;;0.56;76.92;99859.13;5039296;28;20611;-79
2023/02/27 06:13:12;;;;;;;4.33;2.00;;;;;;;0.51;76.59;99861.41;5044063;28;20206;-79
2023/02/27 06:15:40;;;;;;;2.83;1.63;;;;;;;0.52;76.92;99876.22;5038384;28;20195;-81
2023/02/27 06:18:06;;;;;;;3.60;2.00;;;;;;;0.52;77.03;99876.22;5039624;28;20653;-80
2023/02/27 06:20:34;;;;;;;4.07;1.60;;;;;;;0.47;76.43;99885.59;5036776;28;20293;-79
2023/02/27 06:23:03;;;;;;;4.33;2.20;;;;;;;0.55;76.95;99878.59;5026925;28;20194;-80
2023/02/27 06:25:41;;;;;;;3.90;2.07;;;;;;;0.62;76.88;99886.72;5015171;28;20193;-82
2023/02/27 06:28:08;;;;;;;3.73;2.00;;;;;;;0.57;76.89;99892.44;5032074;28;20269;-80
2023/02/27 06:30:35;;;;;;;4.93;1.43;;;;;;;0.64;75.30;99895.31;5033761;28;20209;-79
2023/02/27 06:33:04;;;;;;;3.13;1.83;;;;;;;0.75;74.91;99889.81;5027502;28;20194;-80
2023/02/27 06:35:31;;;;;;;5.43;3.43;;;;;;;0.73;74.02;99889.13;5017125;28;20228;-80
2023/02/27 06:37:58;;;;;;;39.87;21.30;;;;;;;0.69;75.16;99893.91;5017651;28;20194;-79
2023/02/27 06:40:25;;;;;;;8.60;6.17;;;;;;;0.76;74.57;99894.94;5034571;28;20194;-77
2023/02/27 06:42:52;;;;;;;5.30;3.20;;;;;;;0.94;74.43;99896.72;5034780;28;20745;-79
2023/02/27 06:45:24;;;;;;;3.03;2.50;;;;;;;0.83;73.75;99901.28;5034769;28;20686;-79
2023/02/27 06:47:53;;;;;;;3.93;2.00;;;;;;;1.04;73.80;99905.41;5034907;28;20248;-79
2023/02/27 06:50:22;;;;;;;3.80;2.30;;;;;;;1.00;74.20;99914.59;5033492;28;20194;-78
2023/02/27 06:52:59;;;;;;;4.53;2.10;;;;;;;1.00;73.79;99917.25;5036991;28;20237;-79
2023/02/27 06:55:28;;;;;;;3.73;2.10;;;;;;;1.24;74.23;99920.09;5033359;28;20222;-80
2023/02/27 06:57:55;;;;;;;3.10;1.97;;;;;;;0.95;74.22;99928.25;5033554;28;20194;-78
2023/02/27 07:00:24;;;;;;;3.93;2.73;;;;;;;1.12;74.35;99930.03;5017377;28;20636;-80
2023/02/27 07:02:53;;;;;;;4.97;2.80;;;;;;;1.05;73.88;99929.00;5034652;28;20697;-80
2023/02/27 07:05:22;;;;;;;4.67;2.53;;;;;;;0.91;74.64;99923.44;5038735;28;20189;-79
2023/02/27 07:07:49;;;;;;;5.80;3.37;;;;;;;0.87;74.96;99929.00;5040624;28;20336;-79
2023/02/27 07:10:19;;;;;;;7.27;3.40;;;;;;;1.07;75.66;99940.25;5034858;28;20273;-79
2023/02/27 07:12:48;;;;;;;5.10;2.87;;;;;;;1.22;76.23;99935.25;5035139;28;20205;-79
2023/02/27 07:15:17;;;;;;;5.23;2.67;;;;;;;1.23;75.45;99931.63;5035659;28;20210;-80
2023/02/27 07:17:44;;;;;;;4.07;2.70;;;;;;;1.35;75.25;99929.59;5036132;28;20663;-79
2023/02/27 07:20:11;;;;;;;5.03;2.47;;;;;;;1.37;75.06;99935.53;5034310;28;20206;-79
2023/02/27 07:22:39;;;;;;;5.03;2.27;;;;;;;1.61;75.50;99935.72;5038809;28;20625;-80
2023/02/27 07:25:10;;;;;;;4.30;2.47;;;;;;;1.59;74.23;99933.22;5036094;28;20220;-80
2023/02/27 07:27:36;;;;;;;4.17;2.20;;;;;;;1.51;74.29;99927.06;5039411;28;20190;-79
2023/02/27 07:30:07;;;;;;;3.43;2.20;;;;;;;1.45;73.92;99940.84;5022038;28;20284;-80
2023/02/27 07:32:37;;;;;;;4.70;2.90;;;;;;;1.59;73.56;99948.22;5033655;28;20658;-80
2023/02/27 07:35:04;;;;;;;3.10;2.40;;;;;;;1.32;72.63;99942.09;5032789;28;20222;-80
2023/02/27 07:37:33;;;;;;;4.13;2.13;;;;;;;1.63;72.21;99942.47;5033537;28;20194;-80
2023/02/27 07:40:02;;;;;;;4.60;2.40;;;;;;;1.79;71.97;99936.50;5033578;28;20674;-80
2023/02/27 07:42:36;;;;;;;3.47;2.30;;;;;;;1.88;71.76;99950.56;5041477;28;20226;-79
2023/02/27 07:45:06;;;;;;;4.93;2.40;;;;;;;1.99;72.31;99943.22;5043677;28;20680;-80
2023/02/27 07:47:33;;;;;;;3.27;2.60;;;;;;;1.96;71.12;99946.16;5043327;28;20273;-78
2023/02/27 07:50:03;;;;;;;4.27;2.23;;;;;;;1.69;70.81;99952.44;5038481;28;20205;-78
2023/02/27 07:52:36;;;;;;;3.80;2.40;;;;;;;1.83;71.16;99951.03;5023086;28;20205;-79
2023/02/27 07:55:04;;;;;;;3.70;2.30;;;;;;;1.97;71.66;99955.75;5022458;28;20214;-80
2023/02/27 07:57:32;;;;;;;4.47;2.50;;;;;;;2.15;70.49;99956.50;5038579;28;20557;-79
2023/02/27 08:00:06;;;;;;;4.43;2.80;;;;;;;2.12;70.19;99962.13;5032074;28;20217;-80
2023/02/27 08:02:37;;;;;;;3.30;2.10;;;;;;;2.02;69.93;99961.41;5033690;28;20201;-79
2023/02/27 08:05:04;;;;;;;3.63;2.07;;;;;;;1.61;69.95;99960.31;5018140;28;20197;-79
2023/02/27 08:07:32;;;;;;;2.83;2.07;;;;;;;2.23;69.70;99974.25;5037717;28;20248;-78
2023/02/27 08:10:06;;;;;;;3.23;2.60;;;;;;;2.13;68.81;99968.22;5034196;28;20196;-80
2023/02/27 08:12:39;;;;;;;4.13;2.60;;;;;;;1.73;68.12;99967.00;5035808;28;20183;-80
2023/02/27 08:15:06;;;;;;;4.13;2.63;;;;;;;2.17;68.72;99966.94;5034046;28;20213;-79
2023/02/27 08:17:35;;;;;;;4.60;2.20;;;;;;;2.51;68.27;99965.09;5035109;28;20200;-79
2023/02/27 08:20:03;;;;;;;3.27;2.33;;;;;;;2.29;67.17;99968.28;5042012;28;20210;-79
2023/02/27 08:22:35;;;;;;;2.87;1.80;;;;;;;2.07;67.26;99964.41;5035301;28;20280;-79
2023/02/27 08:25:06;;;;;;;10.50;6.33;;;;;;;2.26;67.38;99960.69;5032849;28;20280;-79
2023/02/27 08:27:33;;;;;;;6.70;4.07;;;;;;;2.50;67.15;99965.25;5035473;28;20197;-79
2023/02/27 08:30:05;;;;;;;11.57;7.50;;;;;;;2.51;66.81;99956.34;5039419;28;20209;-78
2023/02/27 08:32:33;;;;;;;3.00;2.30;;;;;;;2.05;67.05;99955.78;5032266;28;20237;-80
2023/02/27 08:35:05;;;;;;;3.80;2.50;;;;;;;2.24;67.30;99957.38;5039820;28;20206;-80
2023/02/27 08:37:38;;;;;;;4.63;2.60;;;;;;;2.28;67.50;99952.63;5047609;28;20190;-80
2023/02/27 08:40:07;;;;;;;5.23;3.00;;;;;;;2.33;66.16;99953.78;5032606;28;20194;-78
2023/02/27 08:42:39;;;;;;;4.33;2.53;;;;;;;2.20;67.45;99956.84;5031233;28;20660;-79
2023/02/27 08:45:09;;;;;;;4.10;3.43;;;;;;;2.40;66.72;99965.38;5031329;28;20198;-78
2023/02/27 08:47:38;;;;;;;4.40;3.03;;;;;;;2.22;65.39;99973.41;5032569;28;20559;-80
2023/02/27 08:50:11;;;;;;;5.37;3.00;;;;;;;2.51;65.37;99967.75;5031370;28;20228;-80
2023/02/27 08:52:40;;;;;;;4.03;2.60;;;;;;;2.56;64.63;99970.75;5018935;28;20730;-79
2023/02/27 08:55:12;;;;;;;3.77;2.20;;;;;;;2.87;64.76;99965.69;5024350;28;20210;-78
2023/02/27 08:57:42;;;;;;;2.77;2.03;;;;;;;2.81;64.23;99968.97;5027761;28;20281;-79
2023/02/27 09:00:16;;;;;;;3.87;2.50;;;;;;;2.59;63.73;99964.28;5032558;28;20217;-78
2023/02/27 09:02:51;;;;;;;3.63;2.40;;;;;;;2.85;64.74;99980.06;5030400;28;20540;-79
2023/02/27 09:05:18;;;;;;;2.87;2.10;;;;;;;3.09;64.39;99983.59;5038029;28;20784;-80
2023/02/27 09:07:48;;;;;;;18.87;13.33;;;;;;;2.93;62.40;99974.81;5035811;28;20710;-81
2023/02/27 09:10:16;;;;;;;3.17;2.10;;;;;;;2.59;63.58;99981.00;5036348;28;20198;-80
2023/02/27 09:12:43;;;;;;;2.30;1.80;;;;;;;3.16;62.24;99985.59;5015628;28;20194;-78
2023/02/27 09:15:14;;;;;;;2.87;2.00;;;;;;;2.72;63.06;99982.34;5033719;28;20217;-81
2023/02/27 09:17:40;;;;;;;3.80;2.50;;;;;;;2.78;63.42;99977.25;5012679;28;20290;-80
2023/02/27 09:20:09;;;;;;;4.23;2.10;;;;;;;2.83;62.43;99982.91;5031274;28;20191;-80
2023/02/27 09:22:41;;;;;;;2.63;1.90;;;;;;;2.59;63.66;99988.94;5034949;28;20214;-80
2023/02/27 09:25:09;;;;;;;3.13;2.00;;;;;;;2.82;64.14;99989.16;5035696;28;20182;-82
2023/02/27 09:27:35;;;;;;;8.10;5.50;;;;;;;3.08;63.22;99997.00;5031962;28;20193;-80
2023/02/27 09:30:09;;;;;;;4.10;2.80;;;;;;;2.52;63.44;99992.38;5031238;28;20206;-80
2023/02/27 09:32:41;;;;;;;12.87;8.13;;;;;;;2.65;63.73;99998.06;5033151;28;20192;-81
2023/02/27 09:35:08;;;;;;;13.23;8.63;;;;;;;2.77;63.83;99996.75;5040062;28;20974;-80
2023/02/27 09:37:38;;;;;;;6.03;3.30;;;;;;;3.25;63.47;99996.03;5017459;28;20232;-80
2023/02/27 09:40:06;;;;;;;6.23;4.97;;;;;;;2.47;63.07;99987.53;5040622;28;20693;-80
2023/02/27 09:42:44;;;;;;;9.33;6.70;;;;;;;2.57;63.01;99990.91;5035809;28;20218;-79
2023/02/27 09:45:22;;;;;;;7.73;5.87;;;;;;;2.89;62.84;100002.59;5042482;28;20190;-80
2023/02/27 09:47:53;;;;;;;7.47;6.00;;;;;;;2.91;62.86;99997.97;5033992;28;20198;-79
2023/02/27 09:50:35;;;;;;;11.87;9.80;;;;;;;2.76;64.12;99991.63;5035887;28;20565;-78
2023/02/27 09:53:05;;;;;;;5.03;2.77;;;;;;;2.97;64.34;99998.16;5030842;28;20748;-79
2023/02/27 09:55:39;;;;;;;6.63;3.70;;;;;;;2.94;63.53;100003.75;5036135;28;20689;-79
2023/02/27 09:58:30;;;;;;;6.57;3.70;;;;;;;2.66;63.45;100004.97;5030555;28;20213;-80
2023/02/27 10:01:19;;;;;;;6.17;4.10;;;;;;;2.75;63.21;100009.34;5028357;28;20191;-78
2023/02/27 10:04:29;;;;;;;7.53;5.10;;;;;;;2.75;64.12;100014.63;5036290;28;20252;-79
2023/02/27 10:07:12;;;;;;;6.73;4.80;;;;;;;2.94;64.22;100003.75;4974030;28;20716;-78
2023/02/27 10:09:44;;;;;;;5.87;4.33;;;;;;;2.90;64.32;100023.59;4956495;28;20208;-80
2023/02/27 10:12:28;;;;;;;11.23;5.10;;;;;;;3.23;63.92;100029.78;5009564;28;20201;-78
2023/02/27 10:15:01;;;;;;;7.00;4.23;;;;;;;3.91;62.50;100024.22;5048480;28;20212;-79
2023/02/27 10:17:50;;;;;;;5.07;3.80;;;;;;;4.39;62.01;100024.09;5044514;28;20190;-79
2023/02/27 10:20:27;;;;;;;5.17;3.43;;;;;;;4.20;62.13;100016.50;5040335;28;20204;-78
2023/02/27 10:22:58;;;;;;;6.80;4.17;;;;;;;4.04;61.73;100008.59;5025618;28;20247;-79
2023/02/27 10:25:48;;;;;;;3.90;2.30;;;;;;;3.67;62.63;100027.69;5039709;28;20194;-80
2023/02/27 10:28:20;;;;;;;2.30;2.10;;;;;;;3.23;62.71;100015.72;5035183;28;20278;-81
2023/02/27 10:30:59;;;;;;;3.47;2.30;;;;;;;3.38;63.66;100036.13;5036216;28;20606;-78
2023/02/27 10:33:36;;;;;;;2.53;1.93;;;;;;;3.26;64.38;100016.25;5042497;28;20196;-80
2023/02/27 10:36:10;;;;;;;3.13;2.13;;;;;;;3.08;64.46;100026.94;5044636;28;20214;-81
2023/02/27 10:38:59;;;;;;;3.30;2.57;;;;;;;3.65;65.15;100021.72;5038674;28;20190;-81
2023/02/27 10:41:28;;;;;;;3.30;2.10;;;;;;;3.36;65.05;100024.84;5043916;28;20184;-81
2023/02/27 10:43:57;;;;;;;3.00;2.10;;;;;;;3.51;65.99;100031.16;5042104;28;20190;-80
2023/02/27 10:46:31;;;;;;;3.20;2.60;;;;;;;3.65;65.92;100031.47;5041432;28;20668;-80
2023/02/27 10:48:59;;;;;;;4.30;2.20;;;;;;;3.04;64.96;100025.63;5040244;28;20652;-80
2023/02/27 10:51:35;;;;;;;3.53;2.30;;;;;;;3.46;64.76;100022.88;5037368;28;20192;-81
2023/02/27 10:54:22;;;;;;;2.37;2.00;;;;;;;3.61;64.18;100014.25;5033883;28;20665;-81
2023/02/27 10:57:29;;;;;;;3.50;2.30;;;;;;;4.30;63.29;100008.38;5031520;28;20289;-81
2023/02/27 11:00:05;;;;;;;3.17;2.17;;;;;;;4.01;62.78;100003.66;5032951;28;20324;-79
2023/02/27 11:02:37;;;;;;;2.90;2.27;;;;;;;3.78;63.33;100003.50;5042591;28;20209;-79
2023/02/27 11:05:15;;;;;;;5.53;2.20;;;;;;;4.45;62.62;100001.38;5043522;28;20292;-79
2023/02/27 11:07:47;;;;;;;2.47;2.27;;;;;;;4.71;61.46;99998.47;5033543;28;20272;-78
2023/02/27 11:10:20;;;;;;;3.77;2.60;;;;;;;4.76;60.86;100002.22;5015386;28;20673;-79
2023/02/27 11:13:24;;;;;;;4.47;2.50;;;;;;;3.77;61.82;100003.69;5023195;28;20658;-78
2023/02/27 11:16:16;;;;;;;4.10;2.73;;;;;;;4.49;62.59;99997.38;5028213;28;20234;-80
2023/02/27 11:18:51;;;;;;;5.00;3.37;;;;;;;4.16;62.80;99991.34;5035672;28;20198;-79
2023/02/27 11:21:28;;;;;;;3.93;2.37;;;;;;;4.02;63.33;99980.59;5034206;28;20213;-78
2023/02/27 11:24:01;;;;;;;4.23;3.00;;;;;;;3.81;63.16;99983.78;5038576;28;20276;-77
2023/02/27 11:26:35;;;;;;;4.23;2.93;;;;;;;4.59;63.77;99984.72;5034427;28;20197;-78
2023/02/27 11:29:10;;;;;;;3.30;2.70;;;;;;;4.86;62.28;99994.88;5030941;28;20199;-79
2023/02/27 11:31:38;;;;;;;4.40;2.70;;;;;;;4.64;62.20;99979.72;5030694;28;20649;-78
2023/02/27 11:34:07;;;;;;;3.83;2.80;;;;;;;4.02;62.16;99992.03;5034115;28;20224;-78
2023/02/27 11:36:49;;;;;;;3.57;2.50;;;;;;;4.65;61.87;99983.22;5017962;28;20232;-78
2023/02/27 11:39:48;;;;;;;;;;;;;;;;;;;;;
2023/02/27 11:42:25;;;;;;;3.40;2.30;;;;;;;4.44;62.30;99970.53;5030640;28;20182;-81
2023/02/27 11:45:05;;;;;;;3.33;2.57;;;;;;;4.13;62.34;99981.06;5016042;28;20218;-84
2023/02/27 11:47:36;;;;;;;3.97;2.00;;;;;;;3.85;62.82;99985.09;5035571;28;20728;-80
2023/02/27 11:50:18;;;;;;;2.43;2.20;;;;;;;3.50;63.41;99986.28;5040238;28;20187;-79
2023/02/27 11:52:51;;;;;;;4.50;2.53;;;;;;;3.73;63.75;99986.47;5037780;28;20209;-80
2023/02/27 11:55:23;;;;;;;4.80;2.40;;;;;;;3.68;63.49;99981.66;5033742;28;20209;-78
2023/02/27 11:57:57;;;;;;;3.77;2.70;;;;;;;3.31;64.30;99976.84;5034262;28;20689;-79
2023/02/27 12:00:41;;;;;;;4.93;2.50;;;;;;;3.49;65.83;99980.19;5033586;28;20560;-79
2023/02/27 12:03:16;;;;;;;4.00;2.77;;;;;;;3.43;64.95;99977.34;5038047;28;20205;-80
2023/02/27 12:05:48;;;;;;;4.93;2.80;;;;;;;3.49;63.73;99982.81;5032679;28;20248;-80
2023/02/27 12:08:26;;;;;;;3.80;2.80;;;;;;;3.69;64.56;99979.81;5028806;28;20306;-79
2023/02/27 12:10:57;;;;;;;3.80;2.60;;;;;;;4.55;64.19;99980.78;5034735;28;20202;-80
2023/02/27 12:13:48;;;;;;;3.07;2.77;;;;;;;4.38;61.89;99976.53;5033171;28;20277;-80
2023/02/27 12:16:23;;;;;;;5.40;2.80;;;;;;;3.86;62.78;99966.41;5039431;28;20216;-79
2023/02/27 12:18:57;;;;;;;4.97;2.80;;;;;;;4.66;62.28;99958.34;5017956;28;20236;-79